sensor_id;sensor_type;location;lat;lon;timestamp;pressure;altitude;pressure_sealevel;temperature;humidity
3590;BME280;1809;48.470;9.226;2023-04-19T00:02:16;65299.22;;;10.70;100.00
3590;BME280;1809;48.470;9.226;2023-04-19T00:04:43;68012.00;;;10.68;100.00
3590;BME280;1809;48.470;9.226;2023-04-19T00:07:09;69358.41;;;10.58;100.00
3590;BME280;1809;48.470;9.226;2023-04-19T00:09:35;71405.78;;;10.66;100.00
3590;BME280;1809;48.470;9.226;2023-04-19T00:12:00;71065.38;;;10.65;100.00
3590;BME280;1809;48.470;9.226;2023-04-19T00:14:26;71404.03;;;10.64;100.00
3590;BME280;1809;48.470;9.226;2023-04-19T00:16:51;72424.78;;;10.65;100.00
3590;BME280;1809;48.470;9.226;2023-04-19T00:19:16;73775.72;;;10.58;100.00
3590;BME280;1809;48.470;9.226;2023-04-19T00:21:42;74450.34;;;10.53;100.00
3590;BME280;1809;48.470;9.226;2023-04-19T00:24:07;76837.22;;;10.58;100.00
3590;BME280;1809;48.470;9.226;2023-04-19T00:26:32;77527.41;;;10.65;100.00
3590;BME280;1809;48.470;9.226;2023-04-19T00:28:58;80242.06;;;10.58;100.00
3590;BME280;1809;48.470;9.226;2023-04-19T00:31:26;83979.59;;;10.49;100.00
3590;BME280;1809;48.470;9.226;2023-04-19T00:33:52;90467.22;;;10.51;100.00
3590;BME280;1809;48.470;9.226;2023-04-19T00:36:17;94211.72;;;10.41;100.00
3590;BME280;1809;48.470;9.226;2023-04-19T00:38:43;98327.16;;;10.47;100.00
3590;BME280;1809;48.470;9.226;2023-04-19T00:41:09;101729.28;;;10.33;100.00
3590;BME280;1809;48.470;9.226;2023-04-19T00:43:35;104116.56;;;10.26;100.00
3590;BME280;1809;48.470;9.226;2023-04-19T00:46:01;106883.19;;;10.39;100.00
3590;BME280;1809;48.470;9.226;2023-04-19T00:48:27;108919.56;;;10.26;100.00
3590;BME280;1809;48.470;9.226;2023-04-19T00:50:55;109608.06;;;10.27;100.00
3590;BME280;1809;48.470;9.226;2023-04-19T00:53:21;111667.09;;;10.26;100.00
3590;BME280;1809;48.470;9.226;2023-04-19T00:55:47;113385.38;;;10.26;100.00
3590;BME280;1809;48.470;9.226;2023-04-19T00:58:15;115771.41;;;10.15;100.00
3590;BME280;1809;48.470;9.226;2023-04-19T01:00:42;117128.00;;;10.05;100.00
3590;BME280;1809;48.470;9.226;2023-04-19T01:03:08;118488.59;;;9.97;100.00
3590;BME280;1809;48.470;9.226;2023-04-19T01:05:34;119869.16;;;9.99;100.00
3590;BME280;1809;48.470;9.226;2023-04-19T01:08:00;122271.50;;;9.95;100.00
3590;BME280;1809;48.470;9.226;2023-04-19T01:10:26;123302.91;;;9.94;100.00
3590;BME280;1809;48.470;9.226;2023-04-19T01:12:52;124349.00;;;10.00;100.00
3590;BME280;1809;48.470;9.226;2023-04-19T01:15:21;124318.22;;;9.85;100.00
3590;BME280;1809;48.470;9.226;2023-04-19T01:17:47;125005.41;;;9.84;100.00
3590;BME280;1809;48.470;9.226;2023-04-19T01:20:13;125343.84;;;9.81;100.00
3590;BME280;1809;48.470;9.226;2023-04-19T01:22:39;125694.75;;;9.84;100.00
3590;BME280;1809;48.470;9.226;2023-04-19T01:25:05;125354.19;;;9.86;100.00
3590;BME280;1809;48.470;9.226;2023-04-19T01:27:31;125367.66;;;9.92;100.00
3590;BME280;1809;48.470;9.226;2023-04-19T01:30:00;125011.59;;;9.87;100.00
3590;BME280;1809;48.470;9.226;2023-04-19T01:32:26;125343.84;;;9.81;100.00
3590;BME280;1809;48.470;9.226;2023-04-19T01:34:52;125693.72;;;9.83;100.00
3590;BME280;1809;48.470;9.226;2023-04-19T01:37:20;125695.75;;;9.84;100.00
3590;BME280;1809;48.470;9.226;2023-04-19T01:39:46;125350.06;;;9.84;100.00
3590;BME280;1809;48.470;9.226;2023-04-19T01:42:14;125701.00;;;9.87;100.00
3590;BME280;1809;48.470;9.226;2023-04-19T01:44:40;125701.00;;;9.87;100.00
3590;BME280;1809;48.470;9.226;2023-04-19T01:47:05;124664.88;;;9.86;100.00
3590;BME280;1809;48.470;9.226;2023-04-19T01:49:31;124662.81;;;9.85;100.00
3590;BME280;1809;48.470;9.226;2023-04-19T01:51:57;124650.44;;;9.79;100.00
3590;BME280;1809;48.470;9.226;2023-04-19T01:54:25;124983.72;;;9.73;100.00
3590;BME280;1809;48.470;9.226;2023-04-19T01:56:51;124635.03;;;9.71;100.00
3590;BME280;1809;48.470;9.226;2023-04-19T01:59:17;125680.22;;;9.77;100.00
3590;BME280;1809;48.470;9.226;2023-04-19T02:01:43;126006.16;;;9.67;100.00
3590;BME280;1809;48.470;9.226;2023-04-19T02:04:08;126699.72;;;9.69;100.00
3590;BME280;1809;48.470;9.226;2023-04-19T02:06:35;126699.72;;;9.69;100.00
3590;BME280;1809;48.470;9.226;2023-04-19T02:09:00;126343.53;;;9.64;100.00
3590;BME280;1809;48.470;9.226;2023-04-19T02:11:26;127036.03;;;9.65;100.00
3590;BME280;1809;48.470;9.226;2023-04-19T02:13:52;126695.53;;;9.67;100.00
3590;BME280;1809;48.470;9.226;2023-04-19T02:16:17;126331.00;;;9.58;100.00
3590;BME280;1809;48.470;9.226;2023-04-19T02:18:43;126687.16;;;9.63;100.00
3590;BME280;1809;48.470;9.226;2023-04-19T02:21:09;126320.53;;;9.53;100.00
3590;BME280;1809;48.470;9.226;2023-04-19T02:23:35;126662.03;;;9.51;100.00
3590;BME280;1809;48.470;9.226;2023-04-19T02:26:04;127338.72;;;9.45;100.00
3590;BME280;1809;48.470;9.226;2023-04-19T02:28:32;128004.78;;;9.34;100.00
3590;BME280;1809;48.470;9.226;2023-04-19T02:30:58;129025.09;;;9.28;100.00
3590;BME280;1809;48.470;9.226;2023-04-19T02:33:25;130052.97;;;9.25;100.00
3590;BME280;1809;48.470;9.226;2023-04-19T02:35:51;130759.94;;;9.33;100.00
3590;BME280;1809;48.470;9.226;2023-04-19T02:38:16;131099.47;;;9.30;100.00
3590;BME280;1809;48.470;9.226;2023-04-19T02:40:42;131787.22;;;9.29;100.00
3590;BME280;1809;48.470;9.226;2023-04-19T02:43:07;132483.88;;;9.32;100.00
3590;BME280;1809;48.470;9.226;2023-04-19T02:45:32;132136.59;;;9.31;100.00
3590;BME280;1809;48.470;9.226;2023-04-19T02:47:58;131800.31;;;9.35;100.00
3590;BME280;1809;48.470;9.226;2023-04-19T02:50:25;131815.59;;;9.42;100.00
3590;BME280;1809;48.470;9.226;2023-04-19T02:52:51;131448.75;;;9.32;100.00
3590;BME280;1809;48.470;9.226;2023-04-19T02:55:16;131801.41;;;9.36;100.00
3590;BME280;1809;48.470;9.226;2023-04-19T02:57:41;131793.75;;;9.32;100.00
3590;BME280;1809;48.470;9.226;2023-04-19T03:00:07;132121.31;;;9.24;100.00
3590;BME280;1809;48.470;9.226;2023-04-19T03:02:33;132121.31;;;9.24;100.00
3590;BME280;1809;48.470;9.226;2023-04-19T03:04:58;132468.50;;;9.25;100.00
3590;BME280;1809;48.470;9.226;2023-04-19T03:07:24;132833.38;;;9.34;100.00
3590;BME280;1809;48.470;9.226;2023-04-19T03:09:50;132482.78;;;9.32;100.00
3590;BME280;1809;48.470;9.226;2023-04-19T03:12:15;132168.34;;;9.46;100.00
3590;BME280;1809;48.470;9.226;2023-04-19T03:14:40;131477.06;;;9.45;100.00
3590;BME280;1809;48.470;9.226;2023-04-19T03:17:06;130420.44;;;9.35;100.00
3590;BME280;1809;48.470;9.226;2023-04-19T03:19:31;130754.53;;;9.30;100.00
3590;BME280;1809;48.470;9.226;2023-04-19T03:21:56;131088.59;;;9.25;100.00
3590;BME280;1809;48.470;9.226;2023-04-19T03:24:29;131447.66;;;9.32;100.00
3590;BME280;1809;48.470;9.226;2023-04-19T03:26:55;131115.72;;;9.38;100.00
3590;BME280;1809;48.470;9.226;2023-04-19T03:29:20;131114.63;;;9.37;100.00
3590;BME280;1809;48.470;9.226;2023-04-19T03:31:46;131810.13;;;9.40;100.00
3590;BME280;1809;48.470;9.226;2023-04-19T03:34:12;131108.13;;;9.34;100.00
3590;BME280;1809;48.470;9.226;2023-04-19T03:36:38;130771.84;;;9.38;100.00
3590;BME280;1809;48.470;9.226;2023-04-19T03:39:03;130432.28;;;9.41;100.00
3590;BME280;1809;48.470;9.226;2023-04-19T03:41:28;129737.13;;;9.38;100.00
3590;BME280;1809;48.470;9.226;2023-04-19T03:43:54;130089.53;;;9.42;100.00
3590;BME280;1809;48.470;9.226;2023-04-19T03:46:19;130431.19;;;9.40;100.00
3590;BME280;1809;48.470;9.226;2023-04-19T03:48:45;130092.78;;;9.43;100.00
3590;BME280;1809;48.470;9.226;2023-04-19T03:51:11;129413.69;;;9.48;100.00
3590;BME280;1809;48.470;9.226;2023-04-19T03:53:37;129405.13;;;9.44;100.00
3590;BME280;1809;48.470;9.226;2023-04-19T03:56:03;129408.34;;;9.46;100.00
3590;BME280;1809;48.470;9.226;2023-04-19T03:58:28;129396.56;;;9.40;100.00
3590;BME280;1809;48.470;9.226;2023-04-19T04:00:54;129726.41;;;9.33;100.00
3590;BME280;1809;48.470;9.226;2023-04-19T04:03:19;130418.25;;;9.34;100.00
3590;BME280;1809;48.470;9.226;2023-04-19T04:05:44;130742.66;;;9.25;100.00
3590;BME280;1809;48.470;9.226;2023-04-19T04:08:10;131112.47;;;9.36;100.00
3590;BME280;1809;48.470;9.226;2023-04-19T04:10:35;131095.09;;;9.28;100.00
3590;BME280;1809;48.470;9.226;2023-04-19T04:13:00;131456.38;;;9.36;100.00
3590;BME280;1809;48.470;9.226;2023-04-19T04:15:26;131090.78;;;9.26;100.00
3590;BME280;1809;48.470;9.226;2023-04-19T04:17:51;131440.06;;;9.28;100.00
3590;BME280;1809;48.470;9.226;2023-04-19T04:20:16;131429.19;;;9.23;100.00
3590;BME280;1809;48.470;9.226;2023-04-19T04:22:42;131775.25;;;9.24;100.00
3590;BME280;1809;48.470;9.226;2023-04-19T04:25:10;132120.22;;;9.24;100.00
3590;BME280;1809;48.470;9.226;2023-04-19T04:27:36;132452.09;;;9.17;100.00
3590;BME280;1809;48.470;9.226;2023-04-19T04:30:02;133158.69;;;9.25;100.00
3590;BME280;1809;48.470;9.226;2023-04-19T04:32:28;133509.38;;;9.28;100.00
3590;BME280;1809;48.470;9.226;2023-04-19T04:34:54;132815.78;;;9.26;100.00
3590;BME280;1809;48.470;9.226;2023-04-19T04:37:19;132806.97;;;9.22;100.00
3590;BME280;1809;48.470;9.226;2023-04-19T04:39:44;132816.91;;;9.27;100.00
3590;BME280;1809;48.470;9.226;2023-04-19T04:42:10;132821.28;;;9.29;100.00
3590;BME280;1809;48.470;9.226;2023-04-19T04:44:36;133511.53;;;9.29;100.00
3590;BME280;1809;48.470;9.226;2023-04-19T04:47:03;133517.06;;;9.31;100.00
3590;BME280;1809;48.470;9.226;2023-04-19T04:49:29;133862.25;;;9.31;100.00
3590;BME280;1809;48.470;9.226;2023-04-19T04:51:55;133185.13;;;9.37;100.00
3590;BME280;1809;48.470;9.226;2023-04-19T04:54:20;132493.75;;;9.37;100.00
3590;BME280;1809;48.470;9.226;2023-04-19T04:56:46;132169.44;;;9.46;100.00
3590;BME280;1809;48.470;9.226;2023-04-19T04:59:11;131471.63;;;9.43;100.00
3590;BME280;1809;48.470;9.226;2023-04-19T05:01:36;130420.44;;;9.35;100.00
3590;BME280;1809;48.470;9.226;2023-04-19T05:04:02;131804.66;;;9.37;100.00
3590;BME280;1809;48.470;9.226;2023-04-19T05:06:27;131817.78;;;9.43;100.00
3590;BME280;1809;48.470;9.226;2023-04-19T05:08:52;132197.84;;;9.59;100.00
3590;BME280;1809;48.470;9.226;2023-04-19T05:11:19;131206.88;;;9.80;100.00
3590;BME280;1809;48.470;9.226;2023-04-19T05:13:44;129164.88;;;9.94;100.00
3590;BME280;1809;48.470;9.226;2023-04-19T05:16:09;124992.97;;;9.78;100.00
3590;BME280;1809;48.470;9.226;2023-04-19T05:18:35;123963.41;;;9.80;100.00
3590;BME280;1809;48.470;9.226;2023-04-19T05:21:00;122253.34;;;9.86;100.00
3590;BME280;1809;48.470;9.226;2023-04-19T05:23:25;120557.69;;;9.99;100.00
3590;BME280;1809;48.470;9.226;2023-04-19T05:25:51;119169.00;;;9.93;100.00
3590;BME280;1809;48.470;9.226;2023-04-19T05:28:16;118819.00;;;9.90;100.00
3590;BME280;1809;48.470;9.226;2023-04-19T05:30:41;117193.72;;;10.39;100.00
3590;BME280;1809;48.470;9.226;2023-04-19T05:33:07;107258.13;;;10.57;100.00
3590;BME280;1809;48.470;9.226;2023-04-19T05:35:32;97682.53;;;10.72;100.00
3590;BME280;1809;48.470;9.226;2023-04-19T05:37:57;92883.06;;;10.67;100.00
3590;BME280;1809;48.470;9.226;2023-04-19T05:40:23;88468.75;;;10.87;100.00
3590;BME280;1809;48.470;9.226;2023-04-19T05:42:48;86065.50;;;10.77;100.00
3590;BME280;1809;48.470;9.226;2023-04-19T05:45:15;84376.50;;;10.90;100.00
3590;BME280;1809;48.470;9.226;2023-04-19T05:47:40;83689.97;;;10.87;100.00
3590;BME280;1809;48.470;9.226;2023-04-19T05:50:06;84027.72;;;10.85;100.00
3590;BME280;1809;48.470;9.226;2023-04-19T05:52:32;82638.28;;;10.66;100.00
3590;BME280;1809;48.470;9.226;2023-04-19T05:54:58;92543.38;;;10.68;100.00
3590;BME280;1809;48.470;9.226;2023-04-19T05:57:23;96339.88;;;10.90;100.00
3590;BME280;1809;48.470;9.226;2023-04-19T05:59:49;95986.44;;;10.83;100.00
3590;BME280;1809;48.470;9.226;2023-04-19T06:02:15;94621.97;;;10.86;100.00
3590;BME280;1809;48.470;9.226;2023-04-19T06:04:40;90868.44;;;10.92;100.00
3590;BME280;1809;48.470;9.226;2023-04-19T06:07:06;85741.72;;;10.90;100.00
3590;BME280;1809;48.470;9.226;2023-04-19T06:09:31;83696.84;;;10.92;100.00
3590;BME280;1809;48.470;9.226;2023-04-19T06:11:57;82017.44;;;11.12;100.00
3590;BME280;1809;48.470;9.226;2023-04-19T06:14:22;78939.66;;;11.05;100.00
3590;BME280;1809;48.470;9.226;2023-04-19T06:16:48;81979.91;;;10.84;100.00
3590;BME280;1809;48.470;9.226;2023-04-19T06:19:13;84366.84;;;10.83;100.00
3590;BME280;1809;48.470;9.226;2023-04-19T06:21:39;84354.44;;;10.74;100.00
3590;BME280;1809;48.470;9.226;2023-04-19T06:24:06;89130.91;;;10.72;100.00
3590;BME280;1809;48.470;9.226;2023-04-19T06:26:31;88774.06;;;10.61;100.00
3590;BME280;1809;48.470;9.226;2023-04-19T06:28:57;90835.66;;;10.69;100.00
3590;BME280;1809;48.470;9.226;2023-04-19T06:31:22;91134.88;;;10.41;100.00
3590;BME280;1809;48.470;9.226;2023-04-19T06:33:48;94566.09;;;10.49;100.00
3590;BME280;1809;48.470;9.226;2023-04-19T06:36:13;96605.34;;;10.41;100.00
3590;BME280;1809;48.470;9.226;2023-04-19T06:38:38;97959.84;;;10.32;100.00
3590;BME280;1809;48.470;9.226;2023-04-19T06:41:05;102404.53;;;10.27;100.00
3590;BME280;1809;48.470;9.226;2023-04-19T06:43:31;105500.34;;;10.33;100.00
3590;BME280;1809;48.470;9.226;2023-04-19T06:45:59;105857.28;;;10.41;100.00
3590;BME280;1809;48.470;9.226;2023-04-19T06:48:25;103454.78;;;10.40;100.00
3590;BME280;1809;48.470;9.226;2023-04-19T06:50:52;103795.94;;;10.39;100.00
3590;BME280;1809;48.470;9.226;2023-04-19T06:53:17;102121.41;;;10.63;100.00
3590;BME280;1809;48.470;9.226;2023-04-19T06:55:43;97310.56;;;10.54;100.00
3590;BME280;1809;48.470;9.226;2023-04-19T06:58:08;95610.38;;;10.61;100.00
3590;BME280;1809;48.470;9.226;2023-04-19T07:00:35;92513.06;;;10.48;100.00
3590;BME280;1809;48.470;9.226;2023-04-19T07:03:00;92507.00;;;10.44;100.00
3590;BME280;1809;48.470;9.226;2023-04-19T07:05:26;95245.50;;;10.46;100.00
3590;BME280;1809;48.470;9.226;2023-04-19T07:07:51;95926.59;;;10.44;100.00
3590;BME280;1809;48.470;9.226;2023-04-19T07:10:17;97984.78;;;10.47;100.00
3590;BME280;1809;48.470;9.226;2023-04-19T07:12:42;98288.41;;;10.23;100.00
3590;BME280;1809;48.470;9.226;2023-04-19T07:15:08;101384.13;;;10.32;100.00
3590;BME280;1809;48.470;9.226;2023-04-19T07:17:34;102078.63;;;10.37;100.00
3590;BME280;1809;48.470;9.226;2023-04-19T07:20:01;103101.78;;;10.34;100.00
3590;BME280;1809;48.470;9.226;2023-04-19T07:22:26;103105.19;;;10.36;100.00
3590;BME280;1809;48.470;9.226;2023-04-19T07:24:52;104090.88;;;10.11;100.00
3590;BME280;1809;48.470;9.226;2023-04-19T07:27:18;106513.75;;;10.24;100.00
3590;BME280;1809;48.470;9.226;2023-04-19T07:29:43;106859.44;;;10.25;100.00
3590;BME280;1809;48.470;9.226;2023-04-19T07:32:09;104131.13;;;10.35;100.00
3590;BME280;1809;48.470;9.226;2023-04-19T07:34:36;103779.72;;;10.30;100.00
3590;BME280;1809;48.470;9.226;2023-04-19T07:37:01;102429.75;;;10.42;100.00
3590;BME280;1809;48.470;9.226;2023-04-19T07:39:27;98327.16;;;10.47;100.00
3590;BME280;1809;48.470;9.226;2023-04-19T07:41:52;97610.41;;;10.27;100.00
3590;BME280;1809;48.470;9.226;2023-04-19T07:44:17;96591.09;;;10.32;100.00
3590;BME280;1809;48.470;9.226;2023-04-19T07:46:43;97308.94;;;10.53;100.00
3590;BME280;1809;48.470;9.226;2023-04-19T07:49:11;93216.63;;;10.61;100.00
3590;BME280;1809;48.470;9.226;2023-04-19T07:51:37;88452.81;;;10.75;100.00
3590;BME280;1809;48.470;9.226;2023-04-19T07:54:02;83667.41;;;10.70;100.00
3590;BME280;1809;48.470;9.226;2023-04-19T07:56:28;86075.38;;;10.85;100.00
3590;BME280;1809;48.470;9.226;2023-04-19T07:58:53;85050.00;;;10.84;100.00
3590;BME280;1809;48.470;9.226;2023-04-19T08:01:18;83035.56;;;11.08;100.00
3590;BME280;1809;48.470;9.226;2023-04-19T08:03:44;75550.78;;;11.19;100.00
3590;BME280;1809;48.470;9.226;2023-04-19T08:06:10;66412.13;;;11.59;100.00
3590;BME280;1809;48.470;9.226;2023-04-19T08:08:37;52837.97;;;11.50;100.00
3590;BME280;1809;48.470;9.226;2023-04-19T08:11:03;46430.34;;;11.72;100.00
3590;BME280;1809;48.470;9.226;2023-04-19T08:13:29;41714.28;;;11.90;100.00
3590;BME280;1809;48.470;9.226;2023-04-19T08:15:55;24887.03;;;12.08;100.00
3590;BME280;1809;48.470;9.226;2023-04-19T08:18:20;4792.28;;;12.16;100.00
3590;BME280;1809;48.470;9.226;2023-04-19T08:20:46;-11169.41;;;12.28;100.00
3590;BME280;1809;48.470;9.226;2023-04-19T08:23:12;-16514.50;;;12.40;100.00
3590;BME280;1809;48.470;9.226;2023-04-19T08:25:38;-16514.09;;;12.38;100.00
3590;BME280;1809;48.470;9.226;2023-04-19T08:28:04;-16516.19;;;12.46;100.00
3590;BME280;1809;48.470;9.226;2023-04-19T08:30:30;-16518.16;;;12.53;100.00
3590;BME280;1809;48.470;9.226;2023-04-19T08:32:55;-16507.22;;;12.14;100.00
3590;BME280;1809;48.470;9.226;2023-04-19T08:35:21;-16514.78;;;12.41;100.00
3590;BME280;1809;48.470;9.226;2023-04-19T08:37:47;-16506.09;;;12.10;100.00
3590;BME280;1809;48.470;9.226;2023-04-19T08:40:14;-16509.44;;;12.22;100.00
3590;BME280;1809;48.470;9.226;2023-04-19T08:42:42;-16509.16;;;12.21;100.00
3590;BME280;1809;48.470;9.226;2023-04-19T08:45:08;-16516.47;;;12.47;100.00
3590;BME280;1809;48.470;9.226;2023-04-19T08:47:36;-16526.00;;;12.81;100.00
3590;BME280;1809;48.470;9.226;2023-04-19T08:50:06;-16542.28;;;13.40;100.00
3590;BME280;1809;48.470;9.226;2023-04-19T08:52:33;-16543.69;;;13.45;100.00
3590;BME280;1809;48.470;9.226;2023-04-19T08:55:04;-16545.50;;;13.52;100.00
3590;BME280;1809;48.470;9.226;2023-04-19T08:57:31;-16540.88;;;13.35;100.00
3590;BME280;1809;48.470;9.226;2023-04-19T09:00:00;-16548.19;;;13.61;100.00
3590;BME280;1809;48.470;9.226;2023-04-19T09:02:26;-16549.88;;;13.67;100.00
3590;BME280;1809;48.470;9.226;2023-04-19T09:04:52;-16546.50;;;13.55;100.00
3590;BME280;1809;48.470;9.226;2023-04-19T09:07:27;-16543.13;;;13.43;100.00
3590;BME280;1809;48.470;9.226;2023-04-19T09:10:04;-16552.09;;;13.75;100.00
3590;BME280;1809;48.470;9.226;2023-04-19T09:12:32;-16558.28;;;13.97;100.00
3590;BME280;1809;48.470;9.226;2023-04-19T09:15:00;-16554.34;;;13.83;100.00
3590;BME280;1809;48.470;9.226;2023-04-19T09:17:26;-16571.59;;;14.45;100.00
3590;BME280;1809;48.470;9.226;2023-04-19T09:19:51;-16557.31;;;13.94;100.00
3590;BME280;1809;48.470;9.226;2023-04-19T09:22:20;-16551.41;;;13.73;100.00
3590;BME280;1809;48.470;9.226;2023-04-19T09:24:45;-16555.63;;;13.88;100.00
3590;BME280;1809;48.470;9.226;2023-04-19T09:27:12;-16564.72;;;14.21;100.00
3590;BME280;1809;48.470;9.226;2023-04-19T09:29:38;-16568.66;;;14.35;100.00
3590;BME280;1809;48.470;9.226;2023-04-19T09:32:03;-16556.47;;;13.91;100.00
3590;BME280;1809;48.470;9.226;2023-04-19T09:34:29;-16554.34;;;13.83;100.00
3590;BME280;1809;48.470;9.226;2023-04-19T09:36:55;-16553.38;;;13.80;100.00
3590;BME280;1809;48.470;9.226;2023-04-19T09:39:29;-16542.28;;;13.40;100.00
3590;BME280;1809;48.470;9.226;2023-04-19T09:41:56;-16548.19;;;13.61;100.00
3590;BME280;1809;48.470;9.226;2023-04-19T09:44:22;-16549.59;;;13.66;100.00
3590;BME280;1809;48.470;9.226;2023-04-19T09:46:48;-16551.81;;;13.74;100.00
3590;BME280;1809;48.470;9.226;2023-04-19T09:49:17;-16539.22;;;13.29;100.00
3590;BME280;1809;48.470;9.226;2023-04-19T09:51:48;-16529.09;;;12.92;100.00
3590;BME280;1809;48.470;9.226;2023-04-19T09:54:15;-16533.88;;;13.10;100.00
3590;BME280;1809;48.470;9.226;2023-04-19T09:56:42;-16532.19;;;13.04;100.00
3590;BME280;1809;48.470;9.226;2023-04-19T09:59:11;-16526.28;;;12.82;100.00
3590;BME280;1809;48.470;9.226;2023-04-19T10:01:39;-16519.00;;;12.56;100.00
3590;BME280;1809;48.470;9.226;2023-04-19T10:04:06;-16532.47;;;13.05;100.00
3590;BME280;1809;48.470;9.226;2023-04-19T10:06:34;-16540.31;;;13.33;100.00
3590;BME280;1809;48.470;9.226;2023-04-19T10:09:01;-16546.50;;;13.55;100.00
3590;BME280;1809;48.470;9.226;2023-04-19T10:11:35;-16543.13;;;13.43;100.00
3590;BME280;1809;48.470;9.226;2023-04-19T10:14:09;-16538.78;;;13.27;100.00
3590;BME280;1809;48.470;9.226;2023-04-19T10:16:37;-16543.13;;;13.43;100.00
3590;BME280;1809;48.470;9.226;2023-04-19T10:19:08;-16534.72;;;13.13;100.00
3590;BME280;1809;48.470;9.226;2023-04-19T10:21:35;-16542.28;;;13.40;100.00
3590;BME280;1809;48.470;9.226;2023-04-19T10:24:01;-16537.66;;;13.23;100.00
3590;BME280;1809;48.470;9.226;2023-04-19T10:26:30;-16549.88;;;13.67;100.00
3590;BME280;1809;48.470;9.226;2023-04-19T10:29:15;-16545.78;;;13.53;100.00
3590;BME280;1809;48.470;9.226;2023-04-19T10:31:41;-16559.13;;;14.00;100.00
3590;BME280;1809;48.470;9.226;2023-04-19T10:34:06;-16562.50;;;14.13;100.00
3590;BME280;1809;48.470;9.226;2023-04-19T10:36:32;-16557.44;;;13.94;100.00
3590;BME280;1809;48.470;9.226;2023-04-19T10:39:01;-16566.69;;;14.28;100.00
3590;BME280;1809;48.470;9.226;2023-04-19T10:41:56;-16565.00;;;14.22;100.00
3590;BME280;1809;48.470;9.226;2023-04-19T10:44:22;-16565.44;;;14.23;100.00
3590;BME280;1809;48.470;9.226;2023-04-19T10:46:48;-16565.16;;;14.22;100.00
3590;BME280;1809;48.470;9.226;2023-04-19T10:49:13;-16570.47;;;14.41;100.00
3590;BME280;1809;48.470;9.226;2023-04-19T10:51:39;-16568.38;;;14.34;100.00
3590;BME280;1809;48.470;9.226;2023-04-19T10:54:31;-16564.44;;;14.20;100.00
3590;BME280;1809;48.470;9.226;2023-04-19T10:56:59;-16557.56;;;13.95;100.00
3590;BME280;1809;48.470;9.226;2023-04-19T10:59:28;-16552.66;;;13.77;100.00
3590;BME280;1809;48.470;9.226;2023-04-19T11:01:55;-16560.38;;;14.05;100.00
3590;BME280;1809;48.470;9.226;2023-04-19T11:07:02;-16551.13;;;13.72;100.00
3590;BME280;1809;48.470;9.226;2023-04-19T11:09:36;-16550.69;;;13.70;100.00
3590;BME280;1809;48.470;9.226;2023-04-19T11:12:06;-16551.69;;;13.74;100.00
3590;BME280;1809;48.470;9.226;2023-04-19T11:14:53;-16562.50;;;14.13;100.00
3590;BME280;1809;48.470;9.226;2023-04-19T11:20:08;-16551.81;;;13.74;100.00
3590;BME280;1809;48.470;9.226;2023-04-19T11:22:36;-16570.34;;;14.41;100.00
3590;BME280;1809;48.470;9.226;2023-04-19T11:27:43;-16570.91;;;14.43;100.00
3590;BME280;1809;48.470;9.226;2023-04-19T11:30:11;-16575.94;;;14.61;100.00
3590;BME280;1809;48.470;9.226;2023-04-19T11:32:43;-16581.56;;;14.81;100.00
3590;BME280;1809;48.470;9.226;2023-04-19T11:35:09;-16590.25;;;15.13;100.00
3590;BME280;1809;48.470;9.226;2023-04-19T11:37:36;-16590.09;;;15.12;100.00
3590;BME280;1809;48.470;9.226;2023-04-19T11:40:02;-16593.34;;;15.24;100.00
3590;BME280;1809;48.470;9.226;2023-04-19T11:42:29;-16600.63;;;15.50;100.00
3590;BME280;1809;48.470;9.226;2023-04-19T11:44:55;-16607.06;;;15.73;100.00
3590;BME280;1809;48.470;9.226;2023-04-19T11:47:21;-16598.66;;;15.43;100.00
3590;BME280;1809;48.470;9.226;2023-04-19T11:49:47;-16604.00;;;15.62;100.00
3590;BME280;1809;48.470;9.226;2023-04-19T11:52:19;-16598.94;;;15.44;100.00
3590;BME280;1809;48.470;9.226;2023-04-19T11:54:45;-16589.81;;;15.11;100.00
3590;BME280;1809;48.470;9.226;2023-04-19T11:57:11;-16581.41;;;14.81;100.00
3590;BME280;1809;48.470;9.226;2023-04-19T11:59:36;-16564.59;;;14.20;100.00
3590;BME280;1809;48.470;9.226;2023-04-19T12:02:05;-16561.09;;;14.08;100.00
3590;BME280;1809;48.470;9.226;2023-04-19T12:04:31;-16567.25;;;14.30;100.00
3590;BME280;1809;48.470;9.226;2023-04-19T12:06:58;-16563.03;;;14.15;100.00
3590;BME280;1809;48.470;9.226;2023-04-19T12:09:23;-16558.28;;;13.97;100.00
3590;BME280;1809;48.470;9.226;2023-04-19T12:11:49;-16556.88;;;13.92;100.00
3590;BME280;1809;48.470;9.226;2023-04-19T12:14:16;-16556.88;;;13.92;100.00
3590;BME280;1809;48.470;9.226;2023-04-19T12:16:44;-16555.47;;;13.87;100.00
3590;BME280;1809;48.470;9.226;2023-04-19T12:19:14;-16563.88;;;14.18;100.00
3590;BME280;1809;48.470;9.226;2023-04-19T12:21:40;-16573.97;;;14.54;100.00
3590;BME280;1809;48.470;9.226;2023-04-19T12:24:06;-16576.66;;;14.64;100.00
3590;BME280;1809;48.470;9.226;2023-04-19T12:26:32;-16584.09;;;14.90;100.00
3590;BME280;1809;48.470;9.226;2023-04-19T12:28:59;-16581.13;;;14.80;100.00
3590;BME280;1809;48.470;9.226;2023-04-19T12:31:24;-16577.50;;;14.67;100.00
3590;BME280;1809;48.470;9.226;2023-04-19T12:33:51;-16564.88;;;14.21;100.00
3590;BME280;1809;48.470;9.226;2023-04-19T12:36:16;-16567.81;;;14.32;100.00
3590;BME280;1809;48.470;9.226;2023-04-19T12:38:41;-16562.22;;;14.12;100.00
3590;BME280;1809;48.470;9.226;2023-04-19T12:41:07;-16558.28;;;13.97;100.00
3590;BME280;1809;48.470;9.226;2023-04-19T12:43:32;-16554.22;;;13.83;100.00
3590;BME280;1809;48.470;9.226;2023-04-19T12:45:58;-16553.22;;;13.79;100.00
3590;BME280;1809;48.470;9.226;2023-04-19T12:48:24;-16552.94;;;13.78;100.00
3590;BME280;1809;48.470;9.226;2023-04-19T12:50:50;-16551.41;;;13.73;100.00
3590;BME280;1809;48.470;9.226;2023-04-19T12:53:15;-16552.09;;;13.75;100.00
3590;BME280;1809;48.470;9.226;2023-04-19T12:55:41;-16549.03;;;13.64;100.00
3590;BME280;1809;48.470;9.226;2023-04-19T12:58:07;-16548.19;;;13.61;100.00
3590;BME280;1809;48.470;9.226;2023-04-19T13:00:32;-16538.09;;;13.25;100.00
3590;BME280;1809;48.470;9.226;2023-04-19T13:02:57;-16530.91;;;12.99;100.00
3590;BME280;1809;48.470;9.226;2023-04-19T13:05:23;-16523.91;;;12.74;100.00
3590;BME280;1809;48.470;9.226;2023-04-19T13:07:48;-16525.59;;;12.80;100.00
3590;BME280;1809;48.470;9.226;2023-04-19T13:10:13;-16520.41;;;12.61;100.00